sensor_id;sensor_type;location;lat;lon;timestamp;P1;durP1;ratioP1;P2;durP2;ratioP2
54883;SDS011;40776;52.880;6.016;2022-12-10T00:01:48;67.80;;;27.90;;
54883;SDS011;40776;52.880;6.016;2022-12-10T00:04:15;76.25;;;28.98;;
54883;SDS011;40776;52.880;6.016;2022-12-10T00:06:41;83.47;;;33.75;;
54883;SDS011;40776;52.880;6.016;2022-12-10T00:09:09;66.22;;;24.52;;
54883;SDS011;40776;52.880;6.016;2022-12-10T00:11:37;59.95;;;24.70;;
54883;SDS011;40776;52.880;6.016;2022-12-10T00:14:03;71.80;;;29.20;;
54883;SDS011;40776;52.880;6.016;2022-12-10T00:16:31;52.35;;;22.33;;
54883;SDS011;40776;52.880;6.016;2022-12-10T00:18:58;84.43;;;31.45;;
54883;SDS011;40776;52.880;6.016;2022-12-10T00:21:26;75.25;;;31.83;;
54883;SDS011;40776;52.880;6.016;2022-12-10T00:23:53;77.72;;;32.55;;
54883;SDS011;40776;52.880;6.016;2022-12-10T00:26:23;70.60;;;28.15;;
54883;SDS011;40776;52.880;6.016;2022-12-10T00:28:50;99.38;;;35.13;;
54883;SDS011;40776;52.880;6.016;2022-12-10T00:31:20;74.35;;;31.35;;
54883;SDS011;40776;52.880;6.016;2022-12-10T00:33:47;73.47;;;30.50;;
54883;SDS011;40776;52.880;6.016;2022-12-10T00:36:17;78.90;;;29.30;;
54883;SDS011;40776;52.880;6.016;2022-12-10T00:38:44;80.97;;;31.92;;
54883;SDS011;40776;52.880;6.016;2022-12-10T00:41:10;81.82;;;32.72;;
54883;SDS011;40776;52.880;6.016;2022-12-10T00:43:37;83.05;;;33.08;;
54883;SDS011;40776;52.880;6.016;2022-12-10T00:46:03;81.80;;;30.40;;
54883;SDS011;40776;52.880;6.016;2022-12-10T00:48:29;78.35;;;30.77;;
54883;SDS011;40776;52.880;6.016;2022-12-10T00:51:38;82.90;;;32.47;;
54883;SDS011;40776;52.880;6.016;2022-12-10T00:53:45;77.07;;;30.13;;
54883;SDS011;40776;52.880;6.016;2022-12-10T00:56:13;78.90;;;31.35;;
54883;SDS011;40776;52.880;6.016;2022-12-10T00:58:39;80.45;;;30.95;;
54883;SDS011;40776;52.880;6.016;2022-12-10T01:03:34;80.15;;;31.58;;
54883;SDS011;40776;52.880;6.016;2022-12-10T01:08:36;83.78;;;32.17;;
54883;SDS011;40776;52.880;6.016;2022-12-10T01:11:02;79.97;;;30.88;;
54883;SDS011;40776;52.880;6.016;2022-12-10T01:13:31;78.78;;;32.35;;
54883;SDS011;40776;52.880;6.016;2022-12-10T01:18:28;84.68;;;33.15;;
54883;SDS011;40776;52.880;6.016;2022-12-10T01:20:54;85.43;;;33.22;;
54883;SDS011;40776;52.880;6.016;2022-12-10T01:23:20;77.95;;;31.00;;
54883;SDS011;40776;52.880;6.016;2022-12-10T01:25:46;82.25;;;31.90;;
54883;SDS011;40776;52.880;6.016;2022-12-10T01:28:12;80.55;;;31.20;;
54883;SDS011;40776;52.880;6.016;2022-12-10T01:30:38;81.13;;;32.38;;
54883;SDS011;40776;52.880;6.016;2022-12-10T01:33:04;84.18;;;31.02;;
54883;SDS011;40776;52.880;6.016;2022-12-10T01:35:30;81.53;;;33.40;;
54883;SDS011;40776;52.880;6.016;2022-12-10T01:37:56;77.18;;;28.15;;
54883;SDS011;40776;52.880;6.016;2022-12-10T01:40:22;85.15;;;32.03;;
54883;SDS011;40776;52.880;6.016;2022-12-10T01:42:48;86.35;;;33.38;;
54883;SDS011;40776;52.880;6.016;2022-12-10T01:45:14;78.90;;;28.35;;
54883;SDS011;40776;52.880;6.016;2022-12-10T01:47:40;81.20;;;29.60;;
54883;SDS011;40776;52.880;6.016;2022-12-10T01:50:07;90.43;;;34.03;;
54883;SDS011;40776;52.880;6.016;2022-12-10T01:52:33;87.13;;;33.30;;
54883;SDS011;40776;52.880;6.016;2022-12-10T01:54:59;92.55;;;34.67;;
54883;SDS011;40776;52.880;6.016;2022-12-10T01:57:26;88.95;;;33.83;;
54883;SDS011;40776;52.880;6.016;2022-12-10T01:59:57;87.13;;;33.55;;
54883;SDS011;40776;52.880;6.016;2022-12-10T02:02:30;88.72;;;33.45;;
54883;SDS011;40776;52.880;6.016;2022-12-10T02:10:02;92.57;;;33.28;;
54883;SDS011;40776;52.880;6.016;2022-12-10T02:15:04;86.68;;;33.03;;
54883;SDS011;40776;52.880;6.016;2022-12-10T02:17:39;96.28;;;35.17;;
54883;SDS011;40776;52.880;6.016;2022-12-10T02:20:08;88.35;;;33.67;;
54883;SDS011;40776;52.880;6.016;2022-12-10T02:22:46;89.18;;;34.58;;
54883;SDS011;40776;52.880;6.016;2022-12-10T02:25:14;89.53;;;32.22;;
54883;SDS011;40776;52.880;6.016;2022-12-10T02:30:07;87.68;;;33.80;;
54883;SDS011;40776;52.880;6.016;2022-12-10T02:32:35;85.95;;;31.35;;
54883;SDS011;40776;52.880;6.016;2022-12-10T02:35:04;90.45;;;32.97;;
54883;SDS011;40776;52.880;6.016;2022-12-10T02:37:33;78.68;;;28.88;;
54883;SDS011;40776;52.880;6.016;2022-12-10T02:40:02;96.75;;;34.58;;
54883;SDS011;40776;52.880;6.016;2022-12-10T02:42:29;93.80;;;35.58;;
54883;SDS011;40776;52.880;6.016;2022-12-10T02:44:56;98.85;;;34.97;;
54883;SDS011;40776;52.880;6.016;2022-12-10T02:47:23;92.50;;;35.42;;
54883;SDS011;40776;52.880;6.016;2022-12-10T02:49:50;86.97;;;31.98;;
54883;SDS011;40776;52.880;6.016;2022-12-10T02:52:19;89.15;;;29.20;;
54883;SDS011;40776;52.880;6.016;2022-12-10T02:54:46;98.25;;;35.40;;
54883;SDS011;40776;52.880;6.016;2022-12-10T03:05:29;96.65;;;36.53;;
54883;SDS011;40776;52.880;6.016;2022-12-10T03:08:02;102.30;;;35.45;;
54883;SDS011;40776;52.880;6.016;2022-12-10T03:12:59;103.43;;;34.15;;
54883;SDS011;40776;52.880;6.016;2022-12-10T03:15:26;92.97;;;34.73;;
54883;SDS011;40776;52.880;6.016;2022-12-10T03:17:53;102.47;;;35.80;;
54883;SDS011;40776;52.880;6.016;2022-12-10T03:20:20;110.63;;;40.05;;
54883;SDS011;40776;52.880;6.016;2022-12-10T03:22:48;102.43;;;37.08;;
54883;SDS011;40776;52.880;6.016;2022-12-10T03:25:17;99.68;;;35.10;;
54883;SDS011;40776;52.880;6.016;2022-12-10T03:27:45;92.22;;;32.30;;
54883;SDS011;40776;52.880;6.016;2022-12-10T03:30:12;103.50;;;37.53;;
54883;SDS011;40776;52.880;6.016;2022-12-10T03:32:38;105.03;;;34.78;;
54883;SDS011;40776;52.880;6.016;2022-12-10T03:35:04;92.25;;;35.05;;
54883;SDS011;40776;52.880;6.016;2022-12-10T03:37:31;114.88;;;39.08;;
54883;SDS011;40776;52.880;6.016;2022-12-10T03:39:58;106.05;;;37.72;;
54883;SDS011;40776;52.880;6.016;2022-12-10T03:42:24;109.75;;;37.95;;
54883;SDS011;40776;52.880;6.016;2022-12-10T03:44:51;107.35;;;35.78;;
54883;SDS011;40776;52.880;6.016;2022-12-10T03:47:17;112.05;;;37.35;;
54883;SDS011;40776;52.880;6.016;2022-12-10T03:49:43;104.47;;;36.45;;
54883;SDS011;40776;52.880;6.016;2022-12-10T03:52:10;109.18;;;39.22;;
54883;SDS011;40776;52.880;6.016;2022-12-10T03:54:36;106.60;;;38.10;;
54883;SDS011;40776;52.880;6.016;2022-12-10T03:57:02;111.55;;;38.10;;
54883;SDS011;40776;52.880;6.016;2022-12-10T03:59:28;102.07;;;36.40;;
54883;SDS011;40776;52.880;6.016;2022-12-10T04:01:54;103.60;;;33.58;;
54883;SDS011;40776;52.880;6.016;2022-12-10T04:04:20;115.97;;;36.78;;
54883;SDS011;40776;52.880;6.016;2022-12-10T04:06:46;114.72;;;40.83;;
54883;SDS011;40776;52.880;6.016;2022-12-10T04:09:13;105.20;;;37.03;;
54883;SDS011;40776;52.880;6.016;2022-12-10T04:14:08;123.40;;;40.15;;
54883;SDS011;40776;52.880;6.016;2022-12-10T04:16:53;125.75;;;40.28;;
54883;SDS011;40776;52.880;6.016;2022-12-10T04:19:19;143.43;;;41.35;;
54883;SDS011;40776;52.880;6.016;2022-12-10T04:21:46;119.80;;;35.33;;
54883;SDS011;40776;52.880;6.016;2022-12-10T04:24:32;121.35;;;38.95;;
54883;SDS011;40776;52.880;6.016;2022-12-10T04:30:13;129.75;;;39.38;;
54883;SDS011;40776;52.880;6.016;2022-12-10T04:32:39;129.82;;;36.80;;
54883;SDS011;40776;52.880;6.016;2022-12-10T04:35:06;115.72;;;36.65;;
54883;SDS011;40776;52.880;6.016;2022-12-10T04:37:32;151.30;;;38.28;;
54883;SDS011;40776;52.880;6.016;2022-12-10T04:39:58;143.23;;;38.83;;
54883;SDS011;40776;52.880;6.016;2022-12-10T04:42:24;142.15;;;39.78;;
54883;SDS011;40776;52.880;6.016;2022-12-10T04:44:50;136.18;;;38.72;;
54883;SDS011;40776;52.880;6.016;2022-12-10T04:47:16;181.90;;;42.60;;
54883;SDS011;40776;52.880;6.016;2022-12-10T04:49:42;120.85;;;39.10;;
54883;SDS011;40776;52.880;6.016;2022-12-10T04:52:10;187.63;;;42.90;;
54883;SDS011;40776;52.880;6.016;2022-12-10T04:54:36;249.75;;;44.20;;
54883;SDS011;40776;52.880;6.016;2022-12-10T04:57:02;217.27;;;45.28;;
54883;SDS011;40776;52.880;6.016;2022-12-10T04:59:28;243.35;;;43.53;;
54883;SDS011;40776;52.880;6.016;2022-12-10T05:01:54;133.70;;;39.65;;
54883;SDS011;40776;52.880;6.016;2022-12-10T05:04:21;230.75;;;40.92;;
54883;SDS011;40776;52.880;6.016;2022-12-10T05:06:47;180.55;;;38.38;;
54883;SDS011;40776;52.880;6.016;2022-12-10T05:09:14;199.65;;;42.40;;
54883;SDS011;40776;52.880;6.016;2022-12-10T05:11:40;239.45;;;42.58;;
54883;SDS011;40776;52.880;6.016;2022-12-10T05:14:10;347.65;;;45.92;;
54883;SDS011;40776;52.880;6.016;2022-12-10T05:16:36;241.55;;;41.53;;
54883;SDS011;40776;52.880;6.016;2022-12-10T05:19:02;170.77;;;36.42;;
54883;SDS011;40776;52.880;6.016;2022-12-10T05:21:28;264.13;;;45.47;;
54883;SDS011;40776;52.880;6.016;2022-12-10T05:24:13;226.23;;;36.92;;
54883;SDS011;40776;52.880;6.016;2022-12-10T05:26:40;274.08;;;39.80;;
54883;SDS011;40776;52.880;6.016;2022-12-10T05:29:06;167.15;;;32.20;;
54883;SDS011;40776;52.880;6.016;2022-12-10T05:31:32;179.50;;;31.92;;
54883;SDS011;40776;52.880;6.016;2022-12-10T05:33:58;235.27;;;37.03;;
54883;SDS011;40776;52.880;6.016;2022-12-10T05:36:25;66.90;;;26.48;;
54883;SDS011;40776;52.880;6.016;2022-12-10T05:38:53;134.05;;;30.85;;
54883;SDS011;40776;52.880;6.016;2022-12-10T05:41:21;129.23;;;29.92;;
54883;SDS011;40776;52.880;6.016;2022-12-10T05:43:48;163.45;;;32.10;;
54883;SDS011;40776;52.880;6.016;2022-12-10T05:46:15;148.02;;;31.00;;
54883;SDS011;40776;52.880;6.016;2022-12-10T05:48:42;150.32;;;32.03;;
54883;SDS011;40776;52.880;6.016;2022-12-10T05:51:08;141.38;;;31.60;;
54883;SDS011;40776;52.880;6.016;2022-12-10T05:53:35;127.72;;;24.65;;
54883;SDS011;40776;52.880;6.016;2022-12-10T05:56:02;172.57;;;32.85;;
54883;SDS011;40776;52.880;6.016;2022-12-10T05:58:29;98.88;;;28.88;;
54883;SDS011;40776;52.880;6.016;2022-12-10T06:00:56;158.88;;;32.35;;
54883;SDS011;40776;52.880;6.016;2022-12-10T06:03:22;152.10;;;30.13;;
54883;SDS011;40776;52.880;6.016;2022-12-10T06:05:48;126.93;;;29.90;;
54883;SDS011;40776;52.880;6.016;2022-12-10T06:08:14;289.50;;;39.28;;
54883;SDS011;40776;52.880;6.016;2022-12-10T06:10:40;247.70;;;35.15;;
54883;SDS011;40776;52.880;6.016;2022-12-10T06:13:06;352.75;;;41.30;;
54883;SDS011;40776;52.880;6.016;2022-12-10T06:15:32;215.02;;;33.97;;
54883;SDS011;40776;52.880;6.016;2022-12-10T06:17:59;205.82;;;34.00;;
54883;SDS011;40776;52.880;6.016;2022-12-10T06:20:25;415.63;;;46.78;;
54883;SDS011;40776;52.880;6.016;2022-12-10T06:22:52;208.50;;;34.25;;
54883;SDS011;40776;52.880;6.016;2022-12-10T06:25:18;231.82;;;33.45;;
54883;SDS011;40776;52.880;6.016;2022-12-10T06:27:44;126.00;;;29.10;;
54883;SDS011;40776;52.880;6.016;2022-12-10T06:30:10;172.15;;;29.20;;
54883;SDS011;40776;52.880;6.016;2022-12-10T06:32:37;276.05;;;36.78;;
54883;SDS011;40776;52.880;6.016;2022-12-10T06:35:03;130.15;;;26.17;;
54883;SDS011;40776;52.880;6.016;2022-12-10T06:37:29;287.02;;;37.63;;
54883;SDS011;40776;52.880;6.016;2022-12-10T06:39:55;244.35;;;36.25;;
54883;SDS011;40776;52.880;6.016;2022-12-10T06:42:21;351.08;;;44.08;;
54883;SDS011;40776;52.880;6.016;2022-12-10T06:44:47;112.70;;;29.02;;
54883;SDS011;40776;52.880;6.016;2022-12-10T06:47:13;230.23;;;32.20;;
54883;SDS011;40776;52.880;6.016;2022-12-10T06:49:40;290.20;;;36.33;;
54883;SDS011;40776;52.880;6.016;2022-12-10T06:52:06;191.23;;;29.60;;
54883;SDS011;40776;52.880;6.016;2022-12-10T06:54:32;202.98;;;30.80;;
54883;SDS011;40776;52.880;6.016;2022-12-10T06:56:58;218.40;;;33.75;;
54883;SDS011;40776;52.880;6.016;2022-12-10T06:59:24;178.73;;;31.58;;
54883;SDS011;40776;52.880;6.016;2022-12-10T07:01:50;257.40;;;35.55;;
54883;SDS011;40776;52.880;6.016;2022-12-10T07:04:16;279.10;;;36.95;;
54883;SDS011;40776;52.880;6.016;2022-12-10T07:06:43;180.13;;;29.15;;
54883;SDS011;40776;52.880;6.016;2022-12-10T07:09:09;171.65;;;32.85;;
54883;SDS011;40776;52.880;6.016;2022-12-10T07:11:35;241.00;;;36.55;;
54883;SDS011;40776;52.880;6.016;2022-12-10T07:14:02;222.88;;;31.27;;
54883;SDS011;40776;52.880;6.016;2022-12-10T07:16:29;189.20;;;33.70;;
54883;SDS011;40776;52.880;6.016;2022-12-10T07:18:56;142.32;;;32.67;;
54883;SDS011;40776;52.880;6.016;2022-12-10T07:21:26;326.02;;;40.67;;
54883;SDS011;40776;52.880;6.016;2022-12-10T07:23:53;406.13;;;43.08;;
54883;SDS011;40776;52.880;6.016;2022-12-10T07:26:21;163.90;;;30.60;;
54883;SDS011;40776;52.880;6.016;2022-12-10T07:28:47;262.63;;;35.60;;
54883;SDS011;40776;52.880;6.016;2022-12-10T07:31:13;298.35;;;38.22;;
54883;SDS011;40776;52.880;6.016;2022-12-10T07:33:39;142.18;;;29.88;;
54883;SDS011;40776;52.880;6.016;2022-12-10T07:36:07;182.27;;;28.73;;
54883;SDS011;40776;52.880;6.016;2022-12-10T07:38:33;254.25;;;37.42;;
54883;SDS011;40776;52.880;6.016;2022-12-10T07:41:06;128.10;;;31.17;;
54883;SDS011;40776;52.880;6.016;2022-12-10T07:43:37;258.73;;;34.95;;
54883;SDS011;40776;52.880;6.016;2022-12-10T07:46:07;152.57;;;30.80;;
54883;SDS011;40776;52.880;6.016;2022-12-10T07:48:34;235.70;;;34.25;;
54883;SDS011;40776;52.880;6.016;2022-12-10T07:51:00;193.70;;;34.00;;
54883;SDS011;40776;52.880;6.016;2022-12-10T07:53:26;167.75;;;28.45;;
54883;SDS011;40776;52.880;6.016;2022-12-10T07:55:52;119.28;;;28.15;;
54883;SDS011;40776;52.880;6.016;2022-12-10T07:58:18;229.48;;;30.48;;
54883;SDS011;40776;52.880;6.016;2022-12-10T08:00:44;227.32;;;32.00;;
54883;SDS011;40776;52.880;6.016;2022-12-10T08:03:10;221.02;;;31.60;;
54883;SDS011;40776;52.880;6.016;2022-12-10T08:05:36;274.83;;;32.90;;
54883;SDS011;40776;52.880;6.016;2022-12-10T08:08:03;271.77;;;36.08;;
54883;SDS011;40776;52.880;6.016;2022-12-10T08:10:29;139.32;;;26.52;;
54883;SDS011;40776;52.880;6.016;2022-12-10T08:12:55;288.08;;;38.47;;
54883;SDS011;40776;52.880;6.016;2022-12-10T08:15:21;204.05;;;32.47;;
54883;SDS011;40776;52.880;6.016;2022-12-10T08:17:47;161.43;;;22.00;;
54883;SDS011;40776;52.880;6.016;2022-12-10T08:20:13;189.10;;;27.38;;
54883;SDS011;40776;52.880;6.016;2022-12-10T08:22:39;176.52;;;26.13;;
54883;SDS011;40776;52.880;6.016;2022-12-10T08:25:05;251.07;;;33.10;;
54883;SDS011;40776;52.880;6.016;2022-12-10T08:27:32;256.42;;;31.50;;
54883;SDS011;40776;52.880;6.016;2022-12-10T08:29:58;100.88;;;24.70;;
54883;SDS011;40776;52.880;6.016;2022-12-10T08:32:24;139.50;;;24.52;;
54883;SDS011;40776;52.880;6.016;2022-12-10T08:34:50;139.88;;;27.13;;
54883;SDS011;40776;52.880;6.016;2022-12-10T08:37:16;148.27;;;26.98;;
54883;SDS011;40776;52.880;6.016;2022-12-10T08:39:42;226.52;;;32.38;;
54883;SDS011;40776;52.880;6.016;2022-12-10T08:42:08;138.43;;;30.85;;
54883;SDS011;40776;52.880;6.016;2022-12-10T08:44:34;202.93;;;32.25;;
54883;SDS011;40776;52.880;6.016;2022-12-10T08:47:00;130.75;;;27.48;;
54883;SDS011;40776;52.880;6.016;2022-12-10T08:49:26;119.63;;;23.73;;
54883;SDS011;40776;52.880;6.016;2022-12-10T08:51:52;184.35;;;30.15;;
54883;SDS011;40776;52.880;6.016;2022-12-10T08:54:18;265.75;;;35.08;;
54883;SDS011;40776;52.880;6.016;2022-12-10T08:56:44;219.65;;;33.70;;
54883;SDS011;40776;52.880;6.016;2022-12-10T08:59:11;148.13;;;28.55;;
54883;SDS011;40776;52.880;6.016;2022-12-10T09:01:37;77.40;;;23.73;;
54883;SDS011;40776;52.880;6.016;2022-12-10T09:04:03;129.00;;;26.10;;
54883;SDS011;40776;52.880;6.016;2022-12-10T09:06:29;105.25;;;25.52;;
54883;SDS011;40776;52.880;6.016;2022-12-10T09:08:55;141.73;;;25.52;;
54883;SDS011;40776;52.880;6.016;2022-12-10T09:11:26;141.80;;;27.95;;
54883;SDS011;40776;52.880;6.016;2022-12-10T09:13:53;118.43;;;25.52;;
54883;SDS011;40776;52.880;6.016;2022-12-10T09:16:19;180.90;;;29.83;;
54883;SDS011;40776;52.880;6.016;2022-12-10T09:18:45;204.40;;;29.30;;
54883;SDS011;40776;52.880;6.016;2022-12-10T09:21:13;100.68;;;23.23;;
54883;SDS011;40776;52.880;6.016;2022-12-10T09:23:40;131.98;;;29.33;;
54883;SDS011;40776;52.880;6.016;2022-12-10T09:26:07;117.88;;;24.30;;
54883;SDS011;40776;52.880;6.016;2022-12-10T09:28:34;142.77;;;28.85;;
54883;SDS011;40776;52.880;6.016;2022-12-10T09:31:01;115.63;;;25.30;;
54883;SDS011;40776;52.880;6.016;2022-12-10T09:33:27;116.45;;;27.75;;
54883;SDS011;40776;52.880;6.016;2022-12-10T09:35:53;123.75;;;26.98;;
54883;SDS011;40776;52.880;6.016;2022-12-10T09:38:19;192.07;;;33.42;;
54883;SDS011;40776;52.880;6.016;2022-12-10T09:48:47;111.20;;;25.20;;
54883;SDS011;40776;52.880;6.016;2022-12-10T09:51:20;89.80;;;24.58;;
54883;SDS011;40776;52.880;6.016;2022-12-10T09:53:51;120.68;;;26.23;;
54883;SDS011;40776;52.880;6.016;2022-12-10T09:56:23;92.28;;;23.55;;
54883;SDS011;40776;52.880;6.016;2022-12-10T09:58:52;87.25;;;23.95;;
54883;SDS011;40776;52.880;6.016;2022-12-10T10:01:19;69.55;;;21.00;;
54883;SDS011;40776;52.880;6.016;2022-12-10T10:03:45;81.70;;;24.40;;
54883;SDS011;40776;52.880;6.016;2022-12-10T10:06:12;109.40;;;25.52;;
54883;SDS011;40776;52.880;6.016;2022-12-10T10:08:55;137.52;;;26.27;;
54883;SDS011;40776;52.880;6.016;2022-12-10T10:11:32;104.97;;;24.60;;
54883;SDS011;40776;52.880;6.016;2022-12-10T10:19:11;165.32;;;31.85;;
54883;SDS011;40776;52.880;6.016;2022-12-10T10:21:41;136.55;;;26.98;;
54883;SDS011;40776;52.880;6.016;2022-12-10T10:24:11;125.45;;;27.58;;
54883;SDS011;40776;52.880;6.016;2022-12-10T10:26:38;179.27;;;30.25;;
54883;SDS011;40776;52.880;6.016;2022-12-10T10:29:05;173.43;;;30.23;;
54883;SDS011;40776;52.880;6.016;2022-12-10T10:31:33;135.48;;;27.88;;
54883;SDS011;40776;52.880;6.016;2022-12-10T10:34:00;121.88;;;28.60;;
54883;SDS011;40776;52.880;6.016;2022-12-10T10:36:27;155.32;;;29.88;;
54883;SDS011;40776;52.880;6.016;2022-12-10T10:38:54;120.30;;;26.30;;
54883;SDS011;40776;52.880;6.016;2022-12-10T10:41:20;152.48;;;29.65;;
54883;SDS011;40776;52.880;6.016;2022-12-10T10:43:46;102.18;;;27.60;;
54883;SDS011;40776;52.880;6.016;2022-12-10T10:46:14;154.85;;;29.15;;
54883;SDS011;40776;52.880;6.016;2022-12-10T10:48:41;114.60;;;27.30;;
54883;SDS011;40776;52.880;6.016;2022-12-10T10:53:41;173.00;;;30.65;;
54883;SDS011;40776;52.880;6.016;2022-12-10T10:56:14;145.68;;;30.98;;
54883;SDS011;40776;52.880;6.016;2022-12-10T11:01:20;185.13;;;33.83;;
54883;SDS011;40776;52.880;6.016;2022-12-10T11:03:47;137.70;;;29.13;;
54883;SDS011;40776;52.880;6.016;2022-12-10T11:06:14;102.35;;;29.75;;
54883;SDS011;40776;52.880;6.016;2022-12-10T11:08:40;108.15;;;28.10;;
54883;SDS011;40776;52.880;6.016;2022-12-10T11:11:40;137.48;;;32.10;;
54883;SDS011;40776;52.880;6.016;2022-12-10T11:16:44;89.15;;;27.75;;
54883;SDS011;40776;52.880;6.016;2022-12-10T11:19:18;101.88;;;26.83;;
54883;SDS011;40776;52.880;6.016;2022-12-10T11:21:45;130.60;;;28.40;;
54883;SDS011;40776;52.880;6.016;2022-12-10T11:24:11;95.05;;;30.73;;
54883;SDS011;40776;52.880;6.016;2022-12-10T11:58:00;109.00;;;26.70;;
54883;SDS011;40776;52.880;6.016;2022-12-10T12:00:29;106.88;;;29.58;;
54883;SDS011;40776;52.880;6.016;2022-12-10T12:16:45;95.40;;;28.38;;
54883;SDS011;40776;52.880;6.016;2022-12-10T12:19:17;94.13;;;25.80;;
54883;SDS011;40776;52.880;6.016;2022-12-10T12:21:45;103.10;;;27.33;;
54883;SDS011;40776;52.880;6.016;2022-12-10T12:24:16;94.90;;;26.13;;
54883;SDS011;40776;52.880;6.016;2022-12-10T12:26:45;85.40;;;25.42;;
54883;SDS011;40776;52.880;6.016;2022-12-10T12:29:20;79.15;;;27.02;;
54883;SDS011;40776;52.880;6.016;2022-12-10T12:31:54;83.35;;;26.27;;
54883;SDS011;40776;52.880;6.016;2022-12-10T12:34:21;80.43;;;25.33;;
54883;SDS011;40776;52.880;6.016;2022-12-10T12:36:49;91.80;;;25.88;;
54883;SDS011;40776;52.880;6.016;2022-12-10T12:41:59;85.32;;;27.80;;
54883;SDS011;40776;52.880;6.016;2022-12-10T12:50:16;94.28;;;27.80;;
54883;SDS011;40776;52.880;6.016;2022-12-10T12:52:47;103.15;;;26.55;;
54883;SDS011;40776;52.880;6.016;2022-12-10T12:55:16;70.38;;;24.63;;
54883;SDS011;40776;52.880;6.016;2022-12-10T12:57:45;67.65;;;23.00;;
54883;SDS011;40776;52.880;6.016;2022-12-10T13:00:14;89.70;;;27.23;;
54883;SDS011;40776;52.880;6.016;2022-12-10T13:05:27;84.53;;;27.25;;
54883;SDS011;40776;52.880;6.016;2022-12-10T13:15:50;87.18;;;28.05;;
54883;SDS011;40776;52.880;6.016;2022-12-10T13:23:48;80.82;;;23.77;;
54883;SDS011;40776;52.880;6.016;2022-12-10T13:26:22;70.53;;;24.85;;
54883;SDS011;40776;52.880;6.016;2022-12-10T13:28:50;77.45;;;26.00;;
54883;SDS011;40776;52.880;6.016;2022-12-10T13:31:21;101.28;;;26.15;;
54883;SDS011;40776;52.880;6.016;2022-12-10T13:41:33;134.20;;;29.38;;
54883;SDS011;40776;52.880;6.016;2022-12-10T13:49:34;101.28;;;27.67;;
54883;SDS011;40776;52.880;6.016;2022-12-10T14:07:26;131.68;;;27.48;;
54883;SDS011;40776;52.880;6.016;2022-12-10T14:09:53;84.50;;;25.70;;
54883;SDS011;40776;52.880;6.016;2022-12-10T14:12:24;133.70;;;29.50;;
54883;SDS011;40776;52.880;6.016;2022-12-10T14:14:58;104.15;;;26.15;;
54883;SDS011;40776;52.880;6.016;2022-12-10T14:17:31;88.45;;;25.42;;
54883;SDS011;40776;52.880;6.016;2022-12-10T14:19:57;97.07;;;26.88;;
54883;SDS011;40776;52.880;6.016;2022-12-10T14:22:33;133.38;;;27.90;;
54883;SDS011;40776;52.880;6.016;2022-12-10T14:25:00;142.35;;;29.83;;
54883;SDS011;40776;52.880;6.016;2022-12-10T14:27:29;117.00;;;25.98;;
54883;SDS011;40776;52.880;6.016;2022-12-10T14:30:00;172.25;;;30.88;;
54883;SDS011;40776;52.880;6.016;2022-12-10T14:32:35;105.32;;;26.23;;
54883;SDS011;40776;52.880;6.016;2022-12-10T14:35:03;114.05;;;27.73;;
54883;SDS011;40776;52.880;6.016;2022-12-10T14:37:31;145.23;;;28.25;;
54883;SDS011;40776;52.880;6.016;2022-12-10T14:39:59;236.13;;;32.50;;
54883;SDS011;40776;52.880;6.016;2022-12-10T14:42:25;220.88;;;34.25;;
54883;SDS011;40776;52.880;6.016;2022-12-10T14:45:25;198.48;;;31.88;;
54883;SDS011;40776;52.880;6.016;2022-12-10T14:47:44;103.18;;;26.73;;
54883;SDS011;40776;52.880;6.016;2022-12-10T14:50:12;213.57;;;32.22;;
54883;SDS011;40776;52.880;6.016;2022-12-10T14:52:39;169.73;;;29.75;;
54883;SDS011;40776;52.880;6.016;2022-12-10T14:55:11;146.95;;;28.40;;
54883;SDS011;40776;52.880;6.016;2022-12-10T15:02:42;214.15;;;31.73;;
54883;SDS011;40776;52.880;6.016;2022-12-10T15:05:16;231.48;;;33.35;;
54883;SDS011;40776;52.880;6.016;2022-12-10T15:07:48;128.70;;;27.75;;
54883;SDS011;40776;52.880;6.016;2022-12-10T15:10:17;204.88;;;30.73;;
54883;SDS011;40776;52.880;6.016;2022-12-10T15:12:47;111.30;;;23.45;;
54883;SDS011;40776;52.880;6.016;2022-12-10T15:15:31;140.48;;;28.05;;
54883;SDS011;40776;52.880;6.016;2022-12-10T15:20:38;162.88;;;27.30;;
54883;SDS011;40776;52.880;6.016;2022-12-10T15:25:44;131.80;;;26.65;;
54883;SDS011;40776;52.880;6.016;2022-12-10T15:28:21;147.38;;;28.00;;
54883;SDS011;40776;52.880;6.016;2022-12-10T15:30:47;203.85;;;29.95;;
54883;SDS011;40776;52.880;6.016;2022-12-10T15:34:00;117.35;;;25.33;;
54883;SDS011;40776;52.880;6.016;2022-12-10T15:36:18;140.52;;;25.02;;
54883;SDS011;40776;52.880;6.016;2022-12-10T15:38:45;128.38;;;23.30;;
54883;SDS011;40776;52.880;6.016;2022-12-10T15:41:22;125.05;;;25.73;;
54883;SDS011;40776;52.880;6.016;2022-12-10T15:43:57;126.28;;;25.00;;
54883;SDS011;40776;52.880;6.016;2022-12-10T15:46:24;82.43;;;23.77;;
54883;SDS011;40776;52.880;6.016;2022-12-10T15:48:50;102.57;;;24.45;;
54883;SDS011;40776;52.880;6.016;2022-12-10T15:51:16;125.60;;;22.95;;
54883;SDS011;40776;52.880;6.016;2022-12-10T15:53:42;88.45;;;21.60;;
54883;SDS011;40776;52.880;6.016;2022-12-10T15:56:08;83.82;;;21.75;;
54883;SDS011;40776;52.880;6.016;2022-12-10T15:58:34;170.30;;;28.92;;
54883;SDS011;40776;52.880;6.016;2022-12-10T16:01:00;142.90;;;26.77;;
54883;SDS011;40776;52.880;6.016;2022-12-10T16:03:29;121.60;;;22.73;;
54883;SDS011;40776;52.880;6.016;2022-12-10T16:05:55;141.73;;;25.95;;
54883;SDS011;40776;52.880;6.016;2022-12-10T16:08:24;62.97;;;12.63;;
54883;SDS011;40776;52.880;6.016;2022-12-10T16:10:51;133.00;;;22.02;;
54883;SDS011;40776;52.880;6.016;2022-12-10T16:13:22;110.38;;;22.05;;
54883;SDS011;40776;52.880;6.016;2022-12-10T16:15:50;111.82;;;21.30;;
54883;SDS011;40776;52.880;6.016;2022-12-10T16:18:17;94.93;;;21.58;;
54883;SDS011;40776;52.880;6.016;2022-12-10T16:20:43;121.78;;;23.17;;
54883;SDS011;40776;52.880;6.016;2022-12-10T16:23:10;114.80;;;23.85;;
54883;SDS011;40776;52.880;6.016;2022-12-10T16:25:37;118.72;;;22.20;;
54883;SDS011;40776;52.880;6.016;2022-12-10T16:28:09;141.88;;;24.13;;
54883;SDS011;40776;52.880;6.016;2022-12-10T16:30:37;102.03;;;19.55;;
54883;SDS011;40776;52.880;6.016;2022-12-10T16:33:05;92.10;;;21.55;;
54883;SDS011;40776;52.880;6.016;2022-12-10T16:35:31;97.88;;;23.80;;
54883;SDS011;40776;52.880;6.016;2022-12-10T16:37:57;168.70;;;25.88;;
54883;SDS011;40776;52.880;6.016;2022-12-10T16:40:24;67.47;;;16.13;;
54883;SDS011;40776;52.880;6.016;2022-12-10T16:42:50;83.47;;;20.80;;
54883;SDS011;40776;52.880;6.016;2022-12-10T16:45:18;108.15;;;20.58;;
54883;SDS011;40776;52.880;6.016;2022-12-10T16:47:44;63.38;;;17.33;;
54883;SDS011;40776;52.880;6.016;2022-12-10T16:50:11;67.32;;;18.27;;
54883;SDS011;40776;52.880;6.016;2022-12-10T16:52:38;66.43;;;18.75;;
54883;SDS011;40776;52.880;6.016;2022-12-10T16:55:04;90.25;;;21.30;;
54883;SDS011;40776;52.880;6.016;2022-12-10T16:57:31;145.68;;;25.95;;
54883;SDS011;40776;52.880;6.016;2022-12-10T16:59:57;99.75;;;22.70;;
54883;SDS011;40776;52.880;6.016;2022-12-10T17:02:23;119.53;;;24.52;;